Time;durP1;ratioP1;P1;durP2;ratioP2;P2;SDS_P1;SDS_P2;PMS_P1;PMS_P2;Temp;Humidity;BMP_temperature;BMP_pressure;BME280_temperature;BME280_humidity;BME280_pressure;Samples;Min_cycle;Max_cycle;Signal;HPM_P1;HPM_P2
2022/12/22 03:26:32;;;;;;;1.90;1.40;;;;;;;;;;5047672;28;20244;-69
2022/12/22 03:28:59;;;;;;;1.53;1.53;;;;;;;;;;5044961;28;20207;-68
2022/12/22 03:31:26;;;;;;;1.17;1.13;;;;;;;;;;5046627;28;20204;-69
2022/12/22 03:33:54;;;;;;;1.17;1.17;;;;;;;;;;5042181;28;20560;-68
2022/12/22 03:36:21;;;;;;;1.40;1.30;;;;;;;;;;5038553;28;20206;-68
2022/12/22 03:38:48;;;;;;;1.10;1.10;;;;;;;;;;5035273;28;20741;-69
2022/12/22 03:46:41;;;;;;;1.13;1.13;;;;;;;;;;5044470;28;20658;-68
2022/12/22 03:49:09;;;;;;;0.80;0.80;;;;;;;;;;5049714;28;20211;-69
2022/12/22 03:51:38;;;;;;;1.13;1.03;;;;;;;;;;5046783;28;20192;-68
2022/12/22 03:54:05;;;;;;;0.80;0.80;;;;;;;;;;5044745;28;20216;-68
2022/12/22 03:56:32;;;;;;;1.23;1.23;;;;;;;;;;5032643;28;20229;-68
2022/12/22 03:58:59;;;;;;;3.23;1.20;;;;;;;;;;5043963;28;20203;-69
2022/12/22 04:01:26;;;;;;;1.00;0.90;;;;;;;;;;5031899;28;20228;-68
2022/12/22 04:03:53;;;;;;;0.90;0.90;;;;;;;;;;5033995;28;20729;-68
2022/12/22 04:06:21;;;;;;;1.90;1.10;;;;;;;;;;5051319;28;20199;-68
2022/12/22 04:08:48;;;;;;;0.87;0.87;;;;;;;;;;5048617;28;20212;-69
2022/12/22 04:14:01;;;;;;;0.70;0.70;;;;;;;;;;5042575;28;20207;-69
2022/12/22 04:19:32;;;;;;;0.90;0.90;;;;;;;;;;5041288;28;20236;-69
2022/12/22 04:22:00;;;;;;;1.00;1.00;;;;;;;;;;5044633;28;20637;-68
2022/12/22 04:24:27;;;;;;;4.10;1.00;;;;;;;;;;5049306;28;20204;-68
2022/12/22 04:26:54;;;;;;;0.90;0.90;;;;;;;;;;5051393;28;20239;-69
2022/12/22 04:29:21;;;;;;;0.60;0.60;;;;;;;;;;5046619;28;20261;-68
2022/12/22 04:31:48;;;;;;;0.70;0.70;;;;;;;;;;5032867;28;20196;-68
2022/12/22 04:34:15;;;;;;;1.03;0.90;;;;;;;;;;5039683;28;20723;-68
2022/12/22 04:36:42;;;;;;;0.87;0.70;;;;;;;;;;5031690;28;20212;-68
2022/12/22 04:39:10;;;;;;;0.67;0.67;;;;;;;;;;5040430;28;20237;-68
2022/12/22 04:41:37;;;;;;;1.33;1.00;;;;;;;;;;5036094;28;20274;-68
2022/12/22 04:44:04;;;;;;;4.17;0.83;;;;;;;;;;5030912;28;20219;-68
2022/12/22 04:46:32;;;;;;;0.77;0.70;;;;;;;;;;5040478;28;20268;-69
2022/12/22 04:48:59;;;;;;;2.40;0.83;;;;;;;;;;5035025;28;20576;-69
2022/12/22 04:51:26;;;;;;;1.90;0.97;;;;;;;;;;5041630;28;20208;-69
2022/12/22 04:53:53;;;;;;;1.60;0.83;;;;;;;;;;5041827;28;20211;-69
2022/12/22 04:56:21;;;;;;;0.80;0.50;;;;;;;;;;5047809;28;20599;-68
2022/12/22 04:58:48;;;;;;;0.67;0.60;;;;;;;;;;5047923;28;20211;-69
2022/12/22 05:01:17;;;;;;;0.80;0.80;;;;;;;;;;5034861;28;20235;-69
2022/12/22 05:03:44;;;;;;;1.53;0.80;;;;;;;;;;5034852;28;20212;-68
2022/12/22 05:06:11;;;;;;;0.83;0.83;;;;;;;;;;5043227;28;20212;-68
2022/12/22 05:08:38;;;;;;;1.53;1.10;;;;;;;;;;5036777;28;20251;-68
2022/12/22 05:11:06;;;;;;;7.43;1.20;;;;;;;;;;5031168;28;20244;-68
2022/12/22 05:13:34;;;;;;;0.80;0.80;;;;;;;;;;5036482;28;20203;-68
2022/12/22 05:16:05;;;;;;;1.00;0.83;;;;;;;;;;5049614;28;20269;-68
2022/12/22 05:18:32;;;;;;;5.07;1.03;;;;;;;;;;5034677;28;20295;-68
2022/12/22 05:20:59;;;;;;;4.53;0.87;;;;;;;;;;5031567;28;20208;-68
2022/12/22 05:23:26;;;;;;;0.50;0.50;;;;;;;;;;5038613;28;20242;-68
2022/12/22 05:25:53;;;;;;;0.50;0.50;;;;;;;;;;5049755;28;20214;-68
2022/12/22 05:28:20;;;;;;;0.60;0.60;;;;;;;;;;5038029;28;20197;-69
2022/12/22 05:30:49;;;;;;;0.97;0.53;;;;;;;;;;5047087;28;20216;-68
2022/12/22 05:33:16;;;;;;;0.70;0.70;;;;;;;;;;5039064;28;20207;-68
2022/12/22 05:35:43;;;;;;;2.87;1.00;;;;;;;;;;5032992;28;20200;-68
2022/12/22 05:38:10;;;;;;;0.80;0.73;;;;;;;;;;5030665;28;20220;-68
2022/12/22 05:40:37;;;;;;;0.33;0.33;;;;;;;;;;5049697;28;20215;-68
2022/12/22 05:43:04;;;;;;;4.43;0.60;;;;;;;;;;5040777;28;20678;-68
2022/12/22 05:45:31;;;;;;;2.43;0.80;;;;;;;;;;5048816;28;20298;-68
2022/12/22 05:47:59;;;;;;;0.70;0.70;;;;;;;;;;5042371;28;20208;-68
2022/12/22 05:50:26;;;;;;;1.40;0.70;;;;;;;;;;5029433;28;20621;-68
2022/12/22 05:52:54;;;;;;;0.60;0.60;;;;;;;;;;5033310;28;20203;-68
2022/12/22 05:55:21;;;;;;;0.83;0.83;;;;;;;;;;5040292;28;20757;-68
2022/12/22 05:57:50;;;;;;;1.90;0.53;;;;;;;;;;5049659;28;20211;-68
2022/12/22 06:00:17;;;;;;;0.40;0.40;;;;;;;;;;5046470;28;20208;-68
2022/12/22 06:02:45;;;;;;;0.40;0.37;;;;;;;;;;5034379;28;20228;-68
2022/12/22 06:05:14;;;;;;;1.03;0.63;;;;;;;;;;5028984;28;20207;-68
2022/12/22 06:07:41;;;;;;;0.40;0.40;;;;;;;;;;5030653;28;20262;-68
2022/12/22 06:10:09;;;;;;;0.80;0.70;;;;;;;;;;5030468;28;20239;-68
2022/12/22 06:12:36;;;;;;;0.70;0.50;;;;;;;;;;5043265;28;20204;-68
2022/12/22 06:15:03;;;;;;;0.57;0.57;;;;;;;;;;5029366;28;20216;-68
2022/12/22 06:17:30;;;;;;;0.87;0.50;;;;;;;;;;5047067;28;20541;-68
2022/12/22 06:19:57;;;;;;;0.63;0.40;;;;;;;;;;5043369;28;20195;-69
2022/12/22 06:22:26;;;;;;;0.43;0.40;;;;;;;;;;5038369;28;20224;-69
2022/12/22 06:24:53;;;;;;;0.47;0.33;;;;;;;;;;5033261;28;20208;-68
2022/12/22 06:27:20;;;;;;;0.33;0.33;;;;;;;;;;5050739;28;20230;-68
2022/12/22 06:29:47;;;;;;;1.60;0.43;;;;;;;;;;5053113;28;20204;-68
2022/12/22 06:32:14;;;;;;;0.30;0.30;;;;;;;;;;5049299;28;20196;-68
2022/12/22 06:34:41;;;;;;;0.50;0.50;;;;;;;;;;5032717;28;20212;-68
2022/12/22 06:37:08;;;;;;;1.17;0.70;;;;;;;;;;5033017;28;20266;-68
2022/12/22 06:39:36;;;;;;;0.63;0.40;;;;;;;;;;5032699;28;20277;-68
2022/12/22 06:44:49;;;;;;;0.30;0.30;;;;;;;;;;5038369;28;20212;-68
2022/12/22 06:47:16;;;;;;;0.37;0.37;;;;;;;;;;5033170;28;20205;-69
2022/12/22 06:49:43;;;;;;;0.70;0.63;;;;;;;;;;5046342;28;20227;-68
2022/12/22 06:52:10;;;;;;;0.60;0.60;;;;;;;;;;5053373;28;20208;-69
2022/12/22 06:54:39;;;;;;;0.50;0.50;;;;;;;;;;5040648;28;20212;-68
2022/12/22 06:57:06;;;;;;;0.67;0.47;;;;;;;;;;5033051;28;20212;-68
2022/12/22 06:59:33;;;;;;;0.30;0.30;;;;;;;;;;5035456;28;20209;-68
2022/12/22 07:02:00;;;;;;;0.40;0.30;;;;;;;;;;5033109;28;20274;-68
2022/12/22 07:04:28;;;;;;;0.33;0.33;;;;;;;;;;5032899;28;20209;-68
2022/12/22 07:06:55;;;;;;;0.57;0.30;;;;;;;;;;5032965;28;20212;-68
2022/12/22 07:09:22;;;;;;;0.30;0.30;;;;;;;;;;5041035;28;20290;-68
2022/12/22 07:11:50;;;;;;;0.50;0.50;;;;;;;;;;5052720;28;20302;-68
2022/12/22 07:14:17;;;;;;;0.40;0.40;;;;;;;;;;5045219;28;20694;-68
2022/12/22 07:16:45;;;;;;;0.20;0.20;;;;;;;;;;5032720;28;20216;-68
2022/12/22 07:19:12;;;;;;;0.43;0.33;;;;;;;;;;5038065;28;20199;-68
2022/12/22 07:21:39;;;;;;;0.37;0.30;;;;;;;;;;5052838;28;20208;-68
2022/12/22 07:24:07;;;;;;;0.50;0.40;;;;;;;;;;5047248;28;20298;-68
2022/12/22 07:26:34;;;;;;;0.10;0.10;;;;;;;;;;5032697;28;20212;-68
2022/12/22 07:29:02;;;;;;;0.10;0.10;;;;;;;;;;5034875;28;20244;-68
2022/12/22 07:31:29;;;;;;;0.37;0.30;;;;;;;;;;5052588;28;20670;-68
2022/12/22 07:33:56;;;;;;;0.20;0.20;;;;;;;;;;5049437;28;20207;-68
2022/12/22 07:36:23;;;;;;;0.20;0.20;;;;;;;;;;5032367;28;20208;-69
2022/12/22 07:38:51;;;;;;;0.57;0.10;;;;;;;;;;5032275;28;20976;-68
2022/12/22 07:44:05;;;;;;;1.10;0.30;;;;;;;;;;5032388;28;20303;-68
2022/12/22 07:46:34;;;;;;;0.17;0.17;;;;;;;;;;5033302;28;20583;-68
2022/12/22 07:51:46;;;;;;;0.40;0.20;;;;;;;;;;5031847;28;20215;-68
2022/12/22 07:54:14;;;;;;;2.10;0.50;;;;;;;;;;5032197;28;20207;-68
2022/12/22 07:56:41;;;;;;;0.67;0.33;;;;;;;;;;5032109;28;20224;-69
2022/12/22 07:59:10;;;;;;;0.97;0.50;;;;;;;;;;5031845;28;20246;-68
2022/12/22 08:01:37;;;;;;;1.30;0.40;;;;;;;;;;5033025;28;20209;-68
2022/12/22 08:04:04;;;;;;;0.40;0.40;;;;;;;;;;5042380;28;20223;-68
2022/12/22 08:06:33;;;;;;;0.50;0.50;;;;;;;;;;5051846;28;20216;-69
2022/12/22 08:09:00;;;;;;;0.20;0.20;;;;;;;;;;5049877;28;20227;-69
2022/12/22 08:11:27;;;;;;;0.30;0.30;;;;;;;;;;5051363;28;20247;-68
2022/12/22 08:13:54;;;;;;;1.07;0.20;;;;;;;;;;5040282;28;20246;-68
2022/12/22 08:16:23;;;;;;;0.20;0.20;;;;;;;;;;5051759;28;20208;-68
2022/12/22 08:18:50;;;;;;;0.37;0.27;;;;;;;;;;5034088;28;20557;-68
2022/12/22 08:21:17;;;;;;;2.17;0.50;;;;;;;;;;5042237;28;20208;-68
2022/12/22 08:23:44;;;;;;;2.57;0.30;;;;;;;;;;5031465;28;20232;-69
2022/12/22 08:26:12;;;;;;;1.30;0.40;;;;;;;;;;5031564;28;20205;-69
2022/12/22 08:28:43;;;;;;;0.17;0.17;;;;;;;;;;5031522;28;20212;-68
2022/12/22 08:31:10;;;;;;;0.60;0.30;;;;;;;;;;5031258;28;20583;-68
2022/12/22 08:33:38;;;;;;;0.20;0.10;;;;;;;;;;5031110;28;20255;-68
2022/12/22 08:36:06;;;;;;;2.23;0.30;;;;;;;;;;5031303;28;20212;-68
2022/12/22 08:38:33;;;;;;;1.20;0.20;;;;;;;;;;5037800;28;20250;-70
2022/12/22 08:41:00;;;;;;;0.77;0.20;;;;;;;;;;5030483;28;20208;-69
2022/12/22 08:43:27;;;;;;;0.20;0.20;;;;;;;;;;5043573;28;20234;-69
2022/12/22 08:45:54;;;;;;;0.30;0.30;;;;;;;;;;5043024;28;20208;-69
2022/12/22 08:48:21;;;;;;;0.40;0.20;;;;;;;;;;5032337;28;20671;-70
2022/12/22 08:50:50;;;;;;;1.30;0.40;;;;;;;;;;5030798;28;20208;-69
2022/12/22 08:53:17;;;;;;;0.17;0.17;;;;;;;;;;5030295;28;20213;-69
2022/12/22 08:55:51;;;;;;;0.97;0.20;;;;;;;;;;5030288;28;20237;-69
2022/12/22 08:58:18;;;;;;;0.20;0.20;;;;;;;;;;5030267;28;20212;-69
2022/12/22 09:00:45;;;;;;;0.27;0.27;;;;;;;;;;5031127;28;20212;-69
2022/12/22 09:03:12;;;;;;;0.43;0.20;;;;;;;;;;5031518;28;20231;-69
2022/12/22 09:05:40;;;;;;;0.87;0.27;;;;;;;;;;5037603;28;20279;-69
2022/12/22 09:08:09;;;;;;;0.43;0.20;;;;;;;;;;5050361;28;20231;-69
2022/12/22 09:10:36;;;;;;;2.83;0.30;;;;;;;;;;5035096;28;20248;-69
2022/12/22 09:13:03;;;;;;;0.53;0.30;;;;;;;;;;5030259;28;20215;-69
2022/12/22 09:15:30;;;;;;;1.03;0.53;;;;;;;;;;5030406;28;20587;-69
2022/12/22 09:17:57;;;;;;;1.60;0.40;;;;;;;;;;5033983;28;20204;-69
2022/12/22 09:20:24;;;;;;;2.77;0.50;;;;;;;;;;5031051;28;20226;-68
2022/12/22 09:22:51;;;;;;;2.33;0.53;;;;;;;;;;5042956;28;21052;-68
2022/12/22 09:25:19;;;;;;;1.63;0.60;;;;;;;;;;5049585;28;20214;-66
2022/12/22 09:27:46;;;;;;;0.40;0.40;;;;;;;;;;5036906;28;20228;-68
2022/12/22 09:30:13;;;;;;;2.03;0.40;;;;;;;;;;5049607;28;20219;-69
2022/12/22 09:32:40;;;;;;;4.20;0.77;;;;;;;;;;5042729;28;20255;-68
2022/12/22 09:35:08;;;;;;;3.30;0.60;;;;;;;;;;5029694;28;20219;-69
2022/12/22 09:37:35;;;;;;;0.83;0.40;;;;;;;;;;5032123;28;20205;-69
2022/12/22 09:40:02;;;;;;;0.50;0.30;;;;;;;;;;5049359;28;20215;-67
2022/12/22 09:42:33;;;;;;;2.20;0.40;;;;;;;;;;5040796;28;20216;-67
2022/12/22 09:45:00;;;;;;;4.30;0.53;;;;;;;;;;5046602;28;20231;-69
2022/12/22 09:47:32;;;;;;;1.97;0.33;;;;;;;;;;5040143;28;20788;-69
2022/12/22 09:49:59;;;;;;;0.60;0.30;;;;;;;;;;5030163;28;20209;-65
2022/12/22 09:52:31;;;;;;;0.40;0.40;;;;;;;;;;5040491;28;20666;-68
2022/12/22 09:54:58;;;;;;;0.87;0.47;;;;;;;;;;5042332;28;20220;-69
2022/12/22 09:57:28;;;;;;;3.17;1.27;;;;;;;;;;5039596;28;20622;-70
2022/12/22 09:59:57;;;;;;;0.63;0.40;;;;;;;;;;5040220;28;20266;-68
2022/12/22 10:02:26;;;;;;;0.60;0.60;;;;;;;;;;5032209;28;20208;-68
2022/12/22 10:04:58;;;;;;;3.67;1.07;;;;;;;;;;5029966;28;20282;-69
2022/12/22 10:07:27;;;;;;;0.53;0.53;;;;;;;;;;5029860;28;20220;-69
2022/12/22 10:09:54;;;;;;;0.23;0.23;;;;;;;;;;5029680;28;20204;-74
2022/12/22 10:12:22;;;;;;;0.73;0.40;;;;;;;;;;5029621;28;20216;-64
2022/12/22 10:14:50;;;;;;;1.40;0.73;;;;;;;;;;5029866;28;20350;-69
2022/12/22 10:17:21;;;;;;;2.10;0.73;;;;;;;;;;5030036;28;20212;-69
2022/12/22 10:19:51;;;;;;;0.77;0.60;;;;;;;;;;5029939;28;20214;-69
2022/12/22 10:22:21;;;;;;;0.50;0.50;;;;;;;;;;5029974;28;20219;-70
2022/12/22 10:24:48;;;;;;;3.13;0.63;;;;;;;;;;5029031;28;20228;-70
2022/12/22 10:27:15;;;;;;;0.70;0.27;;;;;;;;;;5029663;28;20201;-63
2022/12/22 10:29:42;;;;;;;0.20;0.20;;;;;;;;;;5029686;28;20278;-69
2022/12/22 10:32:12;;;;;;;1.13;0.20;;;;;;;;;;5029956;28;20216;-69
2022/12/22 10:34:58;;;;;;;0.30;0.30;;;;;;;;;;5029819;28;20664;-70
2022/12/22 10:37:30;;;;;;;1.40;0.40;;;;;;;;;;5029461;28;20299;-64
2022/12/22 10:39:57;;;;;;;0.73;0.10;;;;;;;;;;5029498;28;20208;-69
2022/12/22 10:42:25;;;;;;;0.63;0.17;;;;;;;;;;5029648;28;20213;-69
2022/12/22 10:44:52;;;;;;;0.20;0.20;;;;;;;;;;5029749;28;20305;-69
2022/12/22 10:47:22;;;;;;;0.33;0.33;;;;;;;;;;5045153;28;20207;-69
2022/12/22 10:49:51;;;;;;;0.83;0.40;;;;;;;;;;5047661;28;20211;-68
2022/12/22 10:52:21;;;;;;;1.27;0.40;;;;;;;;;;5046985;28;20208;-68
2022/12/22 10:54:48;;;;;;;0.30;0.30;;;;;;;;;;5038554;28;20200;-65
2022/12/22 10:57:26;;;;;;;0.80;0.20;;;;;;;;;;5029748;28;20209;-68
2022/12/22 10:59:54;;;;;;;0.30;0.30;;;;;;;;;;5041138;28;20585;-68
2022/12/22 11:02:25;;;;;;;0.37;0.37;;;;;;;;;;5049549;28;20295;-69
2022/12/22 11:04:54;;;;;;;2.43;0.40;;;;;;;;;;5040064;28;20677;-68
2022/12/22 11:07:22;;;;;;;0.20;0.20;;;;;;;;;;5034439;28;20212;-69
2022/12/22 11:09:49;;;;;;;0.50;0.40;;;;;;;;;;5033037;28;20223;-69
2022/12/22 11:12:20;;;;;;;0.47;0.20;;;;;;;;;;5034059;28;20201;-69
2022/12/22 11:14:52;;;;;;;0.30;0.30;;;;;;;;;;5032923;28;20204;-68
2022/12/22 11:17:23;;;;;;;0.10;0.10;;;;;;;;;;5034079;28;20231;-68
2022/12/22 11:20:02;;;;;;;0.10;0.10;;;;;;;;;;5033689;28;20216;-69
2022/12/22 11:22:35;;;;;;;2.80;0.40;;;;;;;;;;5033117;28;20208;-69
2022/12/22 11:25:16;;;;;;;2.57;0.20;;;;;;;;;;5028972;28;20290;-69
2022/12/22 11:27:46;;;;;;;0.20;0.20;;;;;;;;;;5039327;28;20254;-69
2022/12/22 11:30:15;;;;;;;0.20;0.20;;;;;;;;;;5037331;28;20204;-69
2022/12/22 11:32:48;;;;;;;0.50;0.30;;;;;;;;;;5034277;28;20204;-69
2022/12/22 11:35:23;;;;;;;0.20;0.20;;;;;;;;;;5031981;28;20205;-69
2022/12/22 11:37:52;;;;;;;0.10;0.10;;;;;;;;;;5033048;28;20281;-69
2022/12/22 11:40:25;;;;;;;0.10;0.10;;;;;;;;;;5047150;28;20204;-68
2022/12/22 11:43:10;;;;;;;0.17;0.17;;;;;;;;;;5033190;28;20868;-68
2022/12/22 11:45:42;;;;;;;0.30;0.30;;;;;;;;;;5032187;28;20228;-65
2022/12/22 11:48:15;;;;;;;3.03;2.10;;;;;;;;;;5031740;28;20211;-68
2022/12/22 11:50:45;;;;;;;1.53;0.70;;;;;;;;;;5040955;28;20223;-68
2022/12/22 11:53:27;;;;;;;0.53;0.43;;;;;;;;;;5052098;28;20580;-68
2022/12/22 11:56:02;;;;;;;0.67;0.33;;;;;;;;;;5032465;28;20235;-68
2022/12/22 11:58:36;;;;;;;0.27;0.27;;;;;;;;;;5031541;28;20204;-68
2022/12/22 12:01:08;;;;;;;0.10;0.10;;;;;;;;;;5045875;28;20606;-68
2022/12/22 12:03:50;;;;;;;0.30;0.30;;;;;;;;;;5046430;28;20216;-68
2022/12/22 12:06:27;;;;;;;0.20;0.20;;;;;;;;;;5033852;28;20203;-69
2022/12/22 12:09:01;;;;;;;0.40;0.40;;;;;;;;;;5034092;28;20670;-68
2022/12/22 12:11:33;;;;;;;0.30;0.13;;;;;;;;;;5051487;28;20256;-68
2022/12/22 12:14:06;;;;;;;0.20;0.20;;;;;;;;;;5039233;28;20685;-68
2022/12/22 12:16:34;;;;;;;0.03;0.03;;;;;;;;;;5047501;28;20203;-68
2022/12/22 12:19:12;;;;;;;4.23;0.20;;;;;;;;;;5047455;28;20211;-68
2022/12/22 12:21:43;;;;;;;0.60;0.40;;;;;;;;;;5031836;28;20208;-68
2022/12/22 12:24:23;;;;;;;0.10;0.10;;;;;;;;;;5031556;28;20232;-68
2022/12/22 12:26:54;;;;;;;0.63;0.17;;;;;;;;;;5033163;28;20212;-68
2022/12/22 12:29:24;;;;;;;0.27;0.13;;;;;;;;;;5049947;28;20227;-68
2022/12/22 12:31:54;;;;;;;0.30;0.23;;;;;;;;;;5037547;28;20202;-69
2022/12/22 12:34:22;;;;;;;0.20;0.20;;;;;;;;;;5045171;28;20204;-69
2022/12/22 12:36:53;;;;;;;0.10;0.10;;;;;;;;;;5031370;28;20212;-68
2022/12/22 12:39:24;;;;;;;0.10;0.10;;;;;;;;;;5031713;28;20605;-67
2022/12/22 12:41:56;;;;;;;0.20;0.10;;;;;;;;;;5031574;28;20204;-71
2022/12/22 12:44:26;;;;;;;0.10;0.10;;;;;;;;;;5031349;28;20239;-70
2022/12/22 12:46:58;;;;;;;0.10;0.10;;;;;;;;;;5031090;28;20223;-70
2022/12/22 12:49:44;;;;;;;0.20;0.20;;;;;;;;;;5031792;28;20208;-68
2022/12/22 12:52:12;;;;;;;0.40;0.40;;;;;;;;;;5035605;28;20215;-70
2022/12/22 12:54:40;;;;;;;1.47;1.37;;;;;;;;;;5038669;28;20223;-69
2022/12/22 12:57:12;;;;;;;2.00;1.90;;;;;;;;;;5037927;28;20206;-69
2022/12/22 12:59:46;;;;;;;0.70;0.70;;;;;;;;;;5039592;28;20200;-69
2022/12/22 13:02:28;;;;;;;0.50;0.50;;;;;;;;;;5030311;28;20227;-69
2022/12/22 13:05:11;;;;;;;0.40;0.40;;;;;;;;;;5038787;28;20651;-69
2022/12/22 13:07:57;;;;;;;0.50;0.50;;;;;;;;;;5028981;28;20774;-69
2022/12/22 13:10:26;;;;;;;0.90;0.90;;;;;;;;;;5032619;28;20241;-69
2022/12/22 13:12:54;;;;;;;0.77;0.77;;;;;;;;;;5049923;28;20210;-69
2022/12/22 13:15:29;;;;;;;1.00;1.00;;;;;;;;;;5031329;28;20655;-69
2022/12/22 13:17:56;;;;;;;0.60;0.60;;;;;;;;;;5029766;28;20204;-66
2022/12/22 13:20:25;;;;;;;0.70;0.70;;;;;;;;;;5038976;28;20212;-69
2022/12/22 13:22:53;;;;;;;0.77;0.77;;;;;;;;;;5042410;28;20205;-70
2022/12/22 13:25:21;;;;;;;0.40;0.40;;;;;;;;;;5029940;28;20251;-68
2022/12/22 13:27:51;;;;;;;1.30;1.13;;;;;;;;;;5036660;28;20208;-68
2022/12/22 13:30:20;;;;;;;0.47;0.47;;;;;;;;;;5036768;28;20666;-68
2022/12/22 13:32:48;;;;;;;0.87;0.60;;;;;;;;;;5035214;28;20212;-70
2022/12/22 13:35:17;;;;;;;0.30;0.30;;;;;;;;;;5031846;28;20230;-70
2022/12/22 13:37:46;;;;;;;0.30;0.30;;;;;;;;;;5029529;28;20276;-70
2022/12/22 13:40:15;;;;;;;0.10;0.10;;;;;;;;;;5029502;28;20611;-69
2022/12/22 13:42:43;;;;;;;0.37;0.20;;;;;;;;;;5031822;28;20673;-70
2022/12/22 13:45:18;;;;;;;0.30;0.13;;;;;;;;;;5038672;28;20230;-68
2022/12/22 13:47:46;;;;;;;0.10;0.10;;;;;;;;;;5030515;28;20668;-70
2022/12/22 13:50:21;;;;;;;5.00;0.47;;;;;;;;;;5032866;28;20212;-69
2022/12/22 13:52:49;;;;;;;5.37;4.87;;;;;;;;;;5031515;28;20238;-70
2022/12/22 13:55:16;;;;;;;0.53;0.53;;;;;;;;;;5036675;28;20228;-69
2022/12/22 13:57:43;;;;;;;0.73;0.73;;;;;;;;;;5048092;28;20223;-70
2022/12/22 14:00:23;;;;;;;0.40;0.40;;;;;;;;;;5042904;28;20231;-69
2022/12/22 14:02:50;;;;;;;0.30;0.30;;;;;;;;;;5035149;28;20672;-68
2022/12/22 14:05:17;;;;;;;0.30;0.30;;;;;;;;;;5028968;28;20306;-69
2022/12/22 14:08:03;;;;;;;0.30;0.30;;;;;;;;;;5040716;28;20203;-69
2022/12/22 14:10:32;;;;;;;0.93;0.30;;;;;;;;;;5029019;28;20240;-69
2022/12/22 14:12:59;;;;;;;0.10;0.10;;;;;;;;;;5036581;28;20207;-70
2022/12/22 14:15:28;;;;;;;0.20;0.20;;;;;;;;;;5038882;28;20219;-70
2022/12/22 14:17:55;;;;;;;0.10;0.10;;;;;;;;;;5046622;28;20218;-69
2022/12/22 14:20:25;;;;;;;0.30;0.30;;;;;;;;;;5044568;28;20208;-70
2022/12/22 14:22:55;;;;;;;0.40;0.20;;;;;;;;;;5041975;28;20220;-70
2022/12/22 14:25:23;;;;;;;0.30;0.20;;;;;;;;;;5030339;28;20970;-70
2022/12/22 14:27:53;;;;;;;0.10;0.10;;;;;;;;;;5043330;28;20207;-70
2022/12/22 14:30:21;;;;;;;0.17;0.17;;;;;;;;;;5034296;28;20212;-71
2022/12/22 14:32:50;;;;;;;1.97;0.50;;;;;;;;;;5028781;28;20204;-69
2022/12/22 14:35:22;;;;;;;0.30;0.30;;;;;;;;;;5041293;28;20212;-69
2022/12/22 14:37:50;;;;;;;0.17;0.17;;;;;;;;;;5035885;28;20235;-70
2022/12/22 14:40:29;;;;;;;0.10;0.10;;;;;;;;;;5045219;28;20203;-71
2022/12/22 14:42:57;;;;;;;0.20;0.20;;;;;;;;;;5044819;28;20295;-68
2022/12/22 14:45:24;;;;;;;0.40;0.40;;;;;;;;;;5038514;28;20322;-68
2022/12/22 14:47:53;;;;;;;0.20;0.20;;;;;;;;;;5047743;28;20200;-69
2022/12/22 14:50:22;;;;;;;0.30;0.27;;;;;;;;;;5031048;28;20208;-70
2022/12/22 14:52:50;;;;;;;0.20;0.20;;;;;;;;;;5032741;28;20204;-69
2022/12/22 14:55:25;;;;;;;0.30;0.30;;;;;;;;;;5032970;28;20255;-70
2022/12/22 14:57:54;;;;;;;0.20;0.20;;;;;;;;;;5032281;28;20273;-70
2022/12/22 15:00:29;;;;;;;0.20;0.20;;;;;;;;;;5037191;28;20205;-70
2022/12/22 15:02:58;;;;;;;0.40;0.40;;;;;;;;;;5043545;28;20200;-70
2022/12/22 15:05:26;;;;;;;0.93;0.70;;;;;;;;;;5032476;28;20228;-69
2022/12/22 15:07:55;;;;;;;0.50;0.50;;;;;;;;;;5040731;28;20415;-69
2022/12/22 15:10:22;;;;;;;0.57;0.57;;;;;;;;;;5042032;28;20235;-69
2022/12/22 15:12:50;;;;;;;0.40;0.40;;;;;;;;;;5032341;28;20220;-70
2022/12/22 15:15:18;;;;;;;0.40;0.40;;;;;;;;;;5032612;28;20212;-70
2022/12/22 15:17:46;;;;;;;0.20;0.20;;;;;;;;;;5032363;28;20255;-69
2022/12/22 15:20:16;;;;;;;0.40;0.40;;;;;;;;;;5044786;28;20208;-69
2022/12/22 15:22:43;;;;;;;0.23;0.23;;;;;;;;;;5037081;28;20702;-70
2022/12/22 15:25:14;;;;;;;0.37;0.33;;;;;;;;;;5042922;28;20228;-69
2022/12/22 15:27:41;;;;;;;0.30;0.30;;;;;;;;;;5041825;28;20220;-70
2022/12/22 15:30:09;;;;;;;0.40;0.40;;;;;;;;;;5044058;28;20261;-70
2022/12/22 15:32:36;;;;;;;0.30;0.30;;;;;;;;;;5051589;28;20222;-70
2022/12/22 15:35:03;;;;;;;0.30;0.30;;;;;;;;;;5040999;28;20201;-70
2022/12/22 15:37:32;;;;;;;0.30;0.30;;;;;;;;;;5032047;28;20220;-70
2022/12/22 15:39:59;;;;;;;0.30;0.20;;;;;;;;;;5041306;28;20204;-70
2022/12/22 15:42:26;;;;;;;0.57;0.30;;;;;;;;;;5051654;28;20303;-70
2022/12/22 15:44:53;;;;;;;0.40;0.40;;;;;;;;;;5050022;28;20211;-70
2022/12/22 15:47:20;;;;;;;3.93;0.37;;;;;;;;;;5051445;28;20211;-70
2022/12/22 15:49:47;;;;;;;0.40;0.40;;;;;;;;;;5048853;28;20218;-70
2022/12/22 15:52:16;;;;;;;0.50;0.50;;;;;;;;;;5051119;28;20210;-69
2022/12/22 15:54:44;;;;;;;0.70;0.60;;;;;;;;;;5045428;28;20256;-69
2022/12/22 15:57:13;;;;;;;0.80;0.70;;;;;;;;;;5051852;28;20211;-70
2022/12/22 15:59:40;;;;;;;0.70;0.70;;;;;;;;;;5032565;28;20228;-70
2022/12/22 16:02:11;;;;;;;0.60;0.60;;;;;;;;;;5027690;28;20554;-70
2022/12/22 16:04:38;;;;;;;0.60;0.60;;;;;;;;;;5048849;28;20985;-70
2022/12/22 16:07:05;;;;;;;0.60;0.60;;;;;;;;;;5051004;28;20242;-70
2022/12/22 16:09:37;;;;;;;0.60;0.60;;;;;;;;;;5034709;28;20212;-69
2022/12/22 16:12:09;;;;;;;0.90;0.90;;;;;;;;;;5031235;28;20204;-69
2022/12/22 16:14:37;;;;;;;1.07;1.07;;;;;;;;;;5047294;28;20204;-70
2022/12/22 16:17:04;;;;;;;0.50;0.50;;;;;;;;;;5051120;28;20763;-70
2022/12/22 16:19:31;;;;;;;0.43;0.43;;;;;;;;;;5036588;28;20259;-69
2022/12/22 16:21:58;;;;;;;0.53;0.53;;;;;;;;;;5030919;28;20212;-70
2022/12/22 16:24:26;;;;;;;0.50;0.50;;;;;;;;;;5031222;28;20219;-70
2022/12/22 16:26:55;;;;;;;0.60;0.60;;;;;;;;;;5031949;28;20641;-70
2022/12/22 16:29:24;;;;;;;0.87;0.60;;;;;;;;;;5030659;28;20204;-70
2022/12/22 16:31:51;;;;;;;1.30;0.80;;;;;;;;;;5033282;28;20300;-70
2022/12/22 16:34:18;;;;;;;0.63;0.63;;;;;;;;;;5050626;28;20829;-70
2022/12/22 16:36:45;;;;;;;1.80;0.77;;;;;;;;;;5048928;28;20222;-70
2022/12/22 16:39:12;;;;;;;0.60;0.60;;;;;;;;;;5030824;28;20204;-69
2022/12/22 16:41:40;;;;;;;0.63;0.63;;;;;;;;;;5030451;28;20216;-70
2022/12/22 16:44:09;;;;;;;0.63;0.63;;;;;;;;;;5030308;28;20323;-70
2022/12/22 16:46:38;;;;;;;0.87;0.87;;;;;;;;;;5030539;28;20323;-70
2022/12/22 16:49:07;;;;;;;1.70;1.30;;;;;;;;;;5030652;28;20212;-70
2022/12/22 16:51:36;;;;;;;1.37;1.27;;;;;;;;;;5047827;28;20210;-70
2022/12/22 16:54:03;;;;;;;1.27;1.20;;;;;;;;;;5043078;28;20208;-70
2022/12/22 16:56:31;;;;;;;1.27;1.17;;;;;;;;;;5034311;28;20221;-68
2022/12/22 16:59:03;;;;;;;1.17;1.10;;;;;;;;;;5035799;28;20290;-70
2022/12/22 17:01:32;;;;;;;1.03;1.03;;;;;;;;;;5034989;28;20307;-69
2022/12/22 17:04:03;;;;;;;2.37;1.60;;;;;;;;;;5031277;28;20224;-69
2022/12/22 17:06:30;;;;;;;1.20;1.10;;;;;;;;;;5030623;28;20228;-70
2022/12/22 17:08:57;;;;;;;1.10;1.10;;;;;;;;;;5030773;28;20200;-70
2022/12/22 17:11:26;;;;;;;1.43;1.30;;;;;;;;;;5044751;28;20235;-70
2022/12/22 17:16:57;;;;;;;0.70;0.70;;;;;;;;;;5018037;28;20204;-70
2022/12/22 17:19:25;;;;;;;0.87;0.87;;;;;;;;;;5035676;28;20207;-71
2022/12/22 17:21:53;;;;;;;0.70;0.70;;;;;;;;;;5045790;28;20219;-70
2022/12/22 17:24:22;;;;;;;1.13;1.03;;;;;;;;;;5041836;28;20216;-71
2022/12/22 17:26:49;;;;;;;1.67;0.70;;;;;;;;;;5031695;28;20224;-70
2022/12/22 17:29:18;;;;;;;0.90;0.90;;;;;;;;;;5028803;28;20208;-71
2022/12/22 17:31:46;;;;;;;1.70;1.70;;;;;;;;;;5029987;28;20695;-70
2022/12/22 17:34:15;;;;;;;1.40;1.40;;;;;;;;;;5031969;28;20195;-72
2022/12/22 17:36:45;;;;;;;1.20;1.10;;;;;;;;;;5035426;28;20204;-72
2022/12/22 17:39:13;;;;;;;1.33;1.10;;;;;;;;;;5029580;28;20455;-68
2022/12/22 17:41:41;;;;;;;1.10;1.10;;;;;;;;;;5036072;28;20211;-67
2022/12/22 17:44:12;;;;;;;1.27;0.90;;;;;;;;;;5045638;28;20212;-68
2022/12/22 17:46:40;;;;;;;3.00;1.33;;;;;;;;;;5029668;28;20275;-73
2022/12/22 17:49:07;;;;;;;1.60;1.50;;;;;;;;;;5045931;28;20204;-69
2022/12/22 17:51:36;;;;;;;1.30;1.27;;;;;;;;;;5031778;28;20690;-68
2022/12/22 17:54:05;;;;;;;1.10;1.10;;;;;;;;;;5028621;28;20564;-69
2022/12/22 17:56:32;;;;;;;1.53;1.47;;;;;;;;;;5044336;28;20230;-68
2022/12/22 17:58:59;;;;;;;2.00;1.40;;;;;;;;;;5048661;28;20599;-70
2022/12/22 18:01:29;;;;;;;1.60;1.50;;;;;;;;;;5036348;28;20208;-69
2022/12/22 18:03:57;;;;;;;2.00;1.90;;;;;;;;;;5035960;28;20259;-69
2022/12/22 18:06:26;;;;;;;1.33;1.20;;;;;;;;;;5030296;28;20362;-69
2022/12/22 18:08:53;;;;;;;3.20;1.50;;;;;;;;;;5046542;28;20681;-69
2022/12/22 18:11:22;;;;;;;1.93;1.37;;;;;;;;;;5042925;28;20240;-68
2022/12/22 18:13:50;;;;;;;1.30;1.20;;;;;;;;;;5032492;28;20625;-68
2022/12/22 18:16:19;;;;;;;2.87;1.63;;;;;;;;;;5032628;28;20241;-70
2022/12/22 18:18:46;;;;;;;3.70;2.60;;;;;;;;;;5032208;28;20271;-68
2022/12/22 18:21:17;;;;;;;4.67;2.20;;;;;;;;;;5032234;28;20208;-69
2022/12/22 18:23:45;;;;;;;2.67;2.30;;;;;;;;;;5039826;28;20199;-69
2022/12/22 18:26:16;;;;;;;6.23;3.67;;;;;;;;;;5052596;28;20281;-69
2022/12/22 18:28:44;;;;;;;2.87;1.67;;;;;;;;;;5052710;28;20207;-69
2022/12/22 18:31:11;;;;;;;2.70;1.80;;;;;;;;;;5051798;28;20222;-68
2022/12/22 18:33:38;;;;;;;3.47;1.60;;;;;;;;;;5032055;28;20555;-70
2022/12/22 18:36:06;;;;;;;2.63;1.50;;;;;;;;;;5032515;28;20216;-70
2022/12/22 18:38:34;;;;;;;1.63;1.50;;;;;;;;;;5032194;28;20216;-69
2022/12/22 18:41:02;;;;;;;2.40;2.20;;;;;;;;;;5032253;28;20215;-69